createdAt,value
2019-02-20T00:00:46.526Z,1.20
2019-02-20T00:05:43.394Z,1.10
2019-02-20T00:10:39.241Z,1.10
2019-02-20T00:15:34.936Z,1.10
2019-02-20T00:20:31.633Z,1.00
2019-02-20T00:25:27.426Z,0.90
2019-02-20T00:30:23.097Z,0.80
2019-02-20T00:35:18.884Z,0.80
2019-02-20T00:40:14.675Z,0.70
2019-02-20T00:45:36.395Z,0.70
2019-02-20T00:50:33.034Z,0.70
2019-02-20T00:55:28.719Z,0.60
2019-02-20T01:00:24.468Z,0.50
2019-02-20T01:05:20.314Z,0.40
2019-02-20T01:10:16.032Z,0.30
2019-02-20T01:15:11.936Z,0.40
2019-02-20T01:20:08.123Z,0.40
2019-02-20T01:25:03.899Z,0.30
2019-02-20T01:29:59.579Z,0.30
2019-02-20T01:34:55.378Z,0.40
2019-02-20T01:39:51.149Z,0.30
2019-02-20T01:44:46.992Z,0.30
2019-02-20T01:49:42.815Z,0.30
2019-02-20T01:54:38.596Z,0.20
2019-02-20T01:59:37.649Z,0.20
2019-02-20T02:04:33.774Z,0.10
2019-02-20T02:09:29.554Z,0.00
2019-02-20T02:14:27.599Z,-0.10
2019-02-20T02:19:24.560Z,-0.10
2019-02-20T02:24:20.252Z,-0.10
2019-02-20T02:29:18.902Z,-0.10
2019-02-20T02:34:14.697Z,-0.10
2019-02-20T02:39:10.507Z,0.00
2019-02-20T02:44:06.372Z,0.00
2019-02-20T02:49:02.228Z,-0.10
2019-02-20T02:53:58.221Z,-0.20
2019-02-20T02:58:54.017Z,-0.20
2019-02-20T03:03:49.898Z,-0.30
2019-02-20T03:08:45.771Z,-0.30
2019-02-20T03:13:41.492Z,-0.20
2019-02-20T03:18:38.679Z,-0.20
2019-02-20T03:23:40.166Z,-0.30
2019-02-20T03:28:31.881Z,-0.30
2019-02-20T03:33:27.725Z,-0.20
2019-02-20T03:38:30.342Z,-0.20
2019-02-20T03:43:21.045Z,-0.30
2019-02-20T03:48:16.773Z,-0.30
2019-02-20T03:53:12.550Z,-0.30
2019-02-20T03:58:08.273Z,-0.30
2019-02-20T04:03:04.004Z,-0.30
2019-02-20T04:07:59.793Z,-0.30
2019-02-20T04:12:55.548Z,-0.30
2019-02-20T04:17:51.298Z,-0.30
2019-02-20T04:22:47.048Z,-0.30
2019-02-20T04:27:42.825Z,-0.40
2019-02-20T04:32:38.494Z,-0.50
2019-02-20T04:37:34.247Z,-0.40
2019-02-20T04:42:29.944Z,-0.40
2019-02-20T04:47:25.707Z,-0.40
2019-02-20T04:52:21.401Z,-0.40
2019-02-20T04:57:17.116Z,-0.30
2019-02-20T05:02:12.855Z,-0.30
2019-02-20T05:07:14.024Z,-0.30
2019-02-20T05:12:09.742Z,-0.20
2019-02-20T05:17:05.579Z,-0.10
2019-02-20T05:22:01.747Z,-0.20
2019-02-20T05:26:58.513Z,-0.20
2019-02-20T05:31:56.119Z,-0.20
2019-02-20T05:36:51.901Z,-0.10
2019-02-20T05:41:47.676Z,-0.10
2019-02-20T05:46:43.475Z,-0.10
2019-02-20T05:51:39.357Z,-0.10
2019-02-20T05:56:35.112Z,0.00
2019-02-20T06:01:30.935Z,0.00
2019-02-20T06:06:26.748Z,0.10
2019-02-20T06:11:22.514Z,0.10
2019-02-20T06:16:18.255Z,0.20
2019-02-20T06:21:16.242Z,0.30
2019-02-20T06:26:11.610Z,0.40
2019-02-20T06:31:07.429Z,0.40
2019-02-20T06:36:03.300Z,0.50
2019-02-20T06:40:59.050Z,0.60
2019-02-20T06:45:54.750Z,0.70
2019-02-20T06:50:50.436Z,0.70
2019-02-20T06:55:46.449Z,0.80
2019-02-20T07:00:42.132Z,0.90
2019-02-20T07:05:39.983Z,1.00
2019-02-20T07:11:34.891Z,1.20
2019-02-20T07:17:01.062Z,1.40
2019-02-20T07:22:17.983Z,1.60
2019-02-20T07:27:55.598Z,1.80
2019-02-20T07:32:51.676Z,2.00
2019-02-20T07:37:47.435Z,2.30
2019-02-20T07:42:43.203Z,2.60
2019-02-20T07:47:38.901Z,2.90
2019-02-20T07:52:34.704Z,3.00
2019-02-20T07:57:30.484Z,3.10
2019-02-20T08:02:26.156Z,3.30
2019-02-20T08:07:22.053Z,3.40
2019-02-20T08:12:18.716Z,3.60
2019-02-20T08:17:14.554Z,3.80
2019-02-20T08:22:10.429Z,3.90
2019-02-20T08:27:06.326Z,4.10
2019-02-20T08:32:04.394Z,4.20
2019-02-20T08:37:00.109Z,4.40
2019-02-20T08:41:57.194Z,4.60
2019-02-20T08:46:53.024Z,5.00
2019-02-20T08:51:51.590Z,5.20
2019-02-20T08:56:47.672Z,5.40
2019-02-20T09:01:43.438Z,5.60
2019-02-20T09:06:39.386Z,5.70
2019-02-20T09:11:35.119Z,5.90
2019-02-20T09:16:30.854Z,6.00
2019-02-20T09:21:26.584Z,6.30
2019-02-20T09:26:22.388Z,6.60
2019-02-20T09:31:18.211Z,6.90
2019-02-20T09:36:17.498Z,7.30
2019-02-20T09:41:13.325Z,7.60
2019-02-20T09:46:09.037Z,7.90
2019-02-20T09:51:04.800Z,8.20
2019-02-20T09:56:00.514Z,8.50
2019-02-20T10:00:56.248Z,8.80
2019-02-20T10:05:52.171Z,9.00
2019-02-20T10:10:47.904Z,9.30
2019-02-20T10:15:43.662Z,9.60
2019-02-20T10:20:41.129Z,9.90
2019-02-20T10:25:37.037Z,10.00
2019-02-20T10:30:32.824Z,10.30
2019-02-20T10:35:28.609Z,10.40
2019-02-20T10:40:25.617Z,10.40
2019-02-20T10:45:21.459Z,10.40
2019-02-20T10:50:17.223Z,10.50
2019-02-20T10:55:15.440Z,10.60
2019-02-20T11:00:24.271Z,10.80
2019-02-20T11:05:19.069Z,10.90
2019-02-20T11:10:14.891Z,11.00
2019-02-20T11:15:10.737Z,11.10
2019-02-20T11:20:07.195Z,11.10
2019-02-20T11:25:02.977Z,11.40
2019-02-20T11:29:58.687Z,12.10
2019-02-20T11:34:54.578Z,12.70
2019-02-20T11:39:50.429Z,13.00
2019-02-20T11:44:46.640Z,13.50
2019-02-20T11:49:42.453Z,13.90
2019-02-20T11:54:38.183Z,14.50
2019-02-20T11:59:33.948Z,14.90
2019-02-20T12:04:29.675Z,15.40
2019-02-20T12:09:25.363Z,15.30
2019-02-20T12:14:24.384Z,15.70
2019-02-20T12:19:19.789Z,15.90
2019-02-20T12:24:15.495Z,15.20
2019-02-20T12:29:11.527Z,14.70
2019-02-20T12:34:07.301Z,14.50
2019-02-20T12:39:03.185Z,14.30
2019-02-20T12:44:00.467Z,14.20
2019-02-20T12:48:56.444Z,14.20
2019-02-20T12:53:52.264Z,15.00
2019-02-20T12:58:48.193Z,15.00
2019-02-20T13:03:43.983Z,15.00
2019-02-20T13:08:39.990Z,15.40
2019-02-20T13:13:35.900Z,15.90
2019-02-20T13:18:31.648Z,16.30
2019-02-20T13:23:27.372Z,16.50
2019-02-20T13:28:23.297Z,16.60
2019-02-20T13:33:19.413Z,16.70
2019-02-20T13:38:16.397Z,16.70
2019-02-20T13:43:12.299Z,16.90
2019-02-20T13:48:09.710Z,17.00
2019-02-20T13:53:08.413Z,17.00
2019-02-20T13:58:04.426Z,17.10
2019-02-20T14:03:01.126Z,17.60
2019-02-20T14:07:56.840Z,17.80
2019-02-20T14:12:52.564Z,18.00
2019-02-20T14:17:49.367Z,17.80
2019-02-20T14:22:47.076Z,17.50
2019-02-20T14:27:42.552Z,17.30
2019-02-20T14:32:38.262Z,17.40
2019-02-20T14:37:34.081Z,17.00
2019-02-20T14:42:29.805Z,17.40
2019-02-20T14:47:25.605Z,17.50
2019-02-20T14:52:21.477Z,17.00
2019-02-20T14:57:19.592Z,16.00
2019-02-20T15:02:16.544Z,15.40
2019-02-20T15:07:12.152Z,15.00
2019-02-20T15:12:08.349Z,14.80
2019-02-20T15:17:04.222Z,14.80
2019-02-20T15:21:59.893Z,14.70
2019-02-20T15:26:55.847Z,14.40
2019-02-20T15:31:51.667Z,14.10
2019-02-20T15:36:47.451Z,13.80
2019-02-20T15:41:43.208Z,13.60
2019-02-20T15:46:38.919Z,13.40
2019-02-20T15:51:34.907Z,13.30
2019-02-20T15:56:30.689Z,13.20
2019-02-20T16:01:26.501Z,13.00
2019-02-20T16:06:22.306Z,12.80
2019-02-20T16:11:18.137Z,12.70
2019-02-20T16:16:14.318Z,12.40
2019-02-20T16:21:10.152Z,12.20
2019-02-20T16:26:06.385Z,12.00
2019-02-20T16:31:02.720Z,11.80
2019-02-20T16:35:58.593Z,11.50
2019-02-20T16:40:54.397Z,11.20
2019-02-20T16:45:50.459Z,11.00
2019-02-20T16:50:46.193Z,10.80
2019-02-20T16:55:45.706Z,10.60
2019-02-20T17:00:41.937Z,10.40
2019-02-20T17:05:37.827Z,10.20
2019-02-20T17:10:34.032Z,10.00
2019-02-20T17:15:30.179Z,9.90
2019-02-20T17:20:27.747Z,9.70
2019-02-20T17:25:23.720Z,9.40
2019-02-20T17:30:19.657Z,9.30
2019-02-20T17:35:18.678Z,9.20
2019-02-20T17:40:15.367Z,9.00
2019-02-20T17:45:13.005Z,8.90
2019-02-20T17:50:12.294Z,8.70
2019-02-20T17:55:08.597Z,8.70
2019-02-20T18:00:05.152Z,8.60
2019-02-20T18:05:02.981Z,8.50
2019-02-20T18:09:59.231Z,8.40
2019-02-20T18:14:55.375Z,8.30
2019-02-20T18:19:51.227Z,8.20
2019-02-20T18:24:51.973Z,8.10
2019-02-20T18:29:48.003Z,8.10
2019-02-20T18:34:43.709Z,8.00
2019-02-20T18:39:39.580Z,7.90
2019-02-20T18:44:35.396Z,8.00
2019-02-20T18:49:31.168Z,7.90
2019-02-20T18:54:26.947Z,7.90
2019-02-20T18:59:22.958Z,7.90
2019-02-20T19:04:18.783Z,7.80
2019-02-20T19:09:25.026Z,7.80
2019-02-20T19:14:38.411Z,7.60
2019-02-20T19:19:49.343Z,7.50
2019-02-20T19:25:36.317Z,7.40
2019-02-20T19:31:34.210Z,7.40
2019-02-20T19:37:00.904Z,7.20
2019-02-20T19:42:21.243Z,7.10
2019-02-20T19:47:32.523Z,7.00
2019-02-20T19:52:57.203Z,6.90
2019-02-20T19:58:24.520Z,6.90
2019-02-20T20:03:42.859Z,6.80
2019-02-20T20:08:44.809Z,6.80
2019-02-20T20:14:11.568Z,6.80
2019-02-20T20:19:54.090Z,6.80
2019-02-20T20:25:26.916Z,6.80
2019-02-20T20:31:14.416Z,6.70
2019-02-20T20:36:54.429Z,6.60
2019-02-20T20:42:23.435Z,6.60
2019-02-20T20:47:41.775Z,6.50
2019-02-20T20:53:21.462Z,6.50
2019-02-20T20:58:48.895Z,6.40
2019-02-20T21:04:26.000Z,6.30
2019-02-20T21:09:42.682Z,6.30
2019-02-20T21:14:56.937Z,6.20
2019-02-20T21:20:33.811Z,6.20
2019-02-20T21:26:11.675Z,6.20
2019-02-20T21:31:53.588Z,6.10
2019-02-20T21:37:24.978Z,6.00
2019-02-20T21:42:48.133Z,5.90
2019-02-20T21:48:15.641Z,5.80
2019-02-20T21:53:52.452Z,5.80
2019-02-20T21:59:22.701Z,5.80
2019-02-20T22:04:34.073Z,5.80
2019-02-20T22:10:01.350Z,5.80
2019-02-20T22:15:28.588Z,5.70
2019-02-20T22:20:57.921Z,5.60
2019-02-20T22:26:49.989Z,5.60
2019-02-20T22:32:31.335Z,5.60
2019-02-20T22:38:21.430Z,5.50
2019-02-20T22:44:30.267Z,5.40
2019-02-20T22:50:08.608Z,5.30
2019-02-20T22:55:29.283Z,5.30
2019-02-20T23:01:20.983Z,5.20
2019-02-20T23:06:58.080Z,5.10
2019-02-20T23:12:26.557Z,4.90
2019-02-20T23:17:27.146Z,4.90
2019-02-20T23:22:23.881Z,4.80
2019-02-20T23:27:33.614Z,4.80
2019-02-20T23:32:32.168Z,4.70
2019-02-20T23:37:34.292Z,4.50
2019-02-20T23:42:30.676Z,4.40
2019-02-20T23:47:26.406Z,4.40
2019-02-20T23:52:22.174Z,4.40
2019-02-20T23:57:17.863Z,4.40
